createdAt,value
2022-09-07T00:00:41.804Z,1.60
2022-09-07T00:03:09.144Z,1.70
2022-09-07T00:05:46.265Z,1.90
2022-09-07T00:08:13.895Z,1.80
2022-09-07T00:10:41.188Z,1.95
2022-09-07T00:13:08.895Z,1.90
2022-09-07T00:15:40.419Z,2.00
2022-09-07T00:18:07.808Z,2.00
2022-09-07T00:20:35.157Z,1.90
2022-09-07T00:23:02.135Z,1.80
2022-09-07T00:25:31.876Z,1.73
2022-09-07T00:27:59.587Z,1.90
2022-09-07T00:30:26.720Z,1.90
2022-09-07T00:32:53.739Z,1.50
2022-09-07T00:35:20.772Z,1.90
2022-09-07T00:37:47.759Z,1.70
2022-09-07T00:40:14.801Z,1.80
2022-09-07T00:42:41.774Z,1.87
2022-09-07T00:45:15.122Z,1.90
2022-09-07T00:48:05.180Z,1.70
2022-09-07T00:50:45.904Z,1.65
2022-09-07T00:53:28.446Z,1.50
2022-09-07T00:55:57.828Z,1.80
2022-09-07T00:58:25.824Z,1.80
2022-09-07T01:00:52.979Z,1.63
2022-09-07T01:03:27.449Z,1.73
2022-09-07T01:06:14.853Z,1.80
2022-09-07T01:08:43.202Z,1.73
2022-09-07T01:11:11.324Z,2.08
2022-09-07T01:13:41.035Z,1.80
2022-09-07T01:16:51.811Z,1.80
2022-09-07T01:19:34.733Z,1.80
2022-09-07T01:22:26.573Z,2.10
2022-09-07T01:25:08.275Z,1.60
2022-09-07T01:27:59.237Z,1.70
2022-09-07T01:30:27.136Z,1.80
2022-09-07T01:33:07.739Z,1.90
2022-09-07T01:35:43.895Z,1.77
2022-09-07T01:38:10.829Z,1.70
2022-09-07T01:41:03.482Z,1.90
2022-09-07T01:43:38.940Z,1.60
2022-09-07T01:46:13.807Z,1.70
2022-09-07T01:48:44.843Z,1.60
2022-09-07T01:51:13.003Z,1.88
2022-09-07T01:53:45.165Z,2.00
2022-09-07T01:56:16.747Z,1.52
2022-09-07T01:58:55.771Z,1.70
2022-09-07T02:01:28.489Z,1.92
2022-09-07T02:04:12.455Z,1.80
2022-09-07T02:07:01.855Z,1.73
2022-09-07T02:09:47.323Z,1.77
2022-09-07T02:12:21.797Z,1.52
2022-09-07T02:14:53.805Z,2.00
2022-09-07T02:17:33.776Z,1.90
2022-09-07T02:20:12.161Z,1.90
2022-09-07T02:22:46.673Z,2.20
2022-09-07T02:25:21.959Z,2.20
2022-09-07T02:27:57.314Z,2.17
2022-09-07T02:30:24.172Z,2.17
2022-09-07T02:32:51.144Z,2.05
2022-09-07T02:35:18.080Z,1.83
2022-09-07T02:37:45.711Z,1.90
2022-09-07T02:40:14.764Z,2.00
2022-09-07T02:42:42.552Z,2.10
2022-09-07T02:45:12.560Z,2.00
2022-09-07T02:48:17.439Z,2.10
2022-09-07T02:51:18.115Z,1.90
2022-09-07T02:54:15.335Z,2.20
2022-09-07T02:56:59.386Z,2.50
2022-09-07T02:59:35.111Z,2.10
2022-09-07T03:02:20.644Z,2.22
2022-09-07T03:05:04.791Z,1.90
2022-09-07T03:07:58.771Z,2.03
2022-09-07T03:10:27.182Z,1.90
2022-09-07T03:12:54.152Z,2.00
2022-09-07T03:15:23.497Z,2.20
2022-09-07T03:17:50.488Z,1.80
2022-09-07T03:20:18.228Z,2.30
2022-09-07T03:22:46.780Z,2.20
2022-09-07T03:25:14.399Z,1.97
2022-09-07T03:27:41.405Z,1.90
2022-09-07T03:30:10.636Z,2.35
2022-09-07T03:32:38.830Z,2.30
2022-09-07T03:35:07.834Z,2.28
2022-09-07T03:37:38.362Z,2.30
2022-09-07T03:40:07.400Z,1.98
2022-09-07T03:42:34.427Z,2.15
2022-09-07T03:45:01.412Z,2.42
2022-09-07T03:47:28.358Z,2.00
2022-09-07T03:49:55.204Z,2.60
2022-09-07T03:52:22.036Z,2.40
2022-09-07T03:54:48.908Z,2.17
2022-09-07T03:57:15.975Z,2.08
2022-09-07T03:59:42.832Z,2.00
2022-09-07T04:02:09.742Z,2.13
2022-09-07T04:04:36.648Z,2.20
2022-09-07T04:07:03.775Z,2.53
2022-09-07T04:09:30.676Z,2.35
2022-09-07T04:11:57.551Z,2.60
2022-09-07T04:14:24.440Z,2.00
2022-09-07T04:16:51.532Z,2.20
2022-09-07T04:19:18.544Z,2.27
2022-09-07T04:21:46.710Z,2.50
2022-09-07T04:24:14.824Z,2.10
2022-09-07T04:26:43.315Z,2.40
2022-09-07T04:29:12.041Z,2.50
2022-09-07T04:31:39.925Z,2.30
2022-09-07T04:34:07.814Z,2.40
2022-09-07T04:36:34.923Z,2.38
2022-09-07T04:39:03.914Z,2.42
2022-09-07T04:41:32.465Z,2.20
2022-09-07T04:44:01.208Z,2.60
2022-09-07T04:46:33.816Z,2.60
2022-09-07T04:49:04.705Z,2.35
2022-09-07T04:51:32.496Z,2.80
2022-09-07T04:54:01.643Z,2.30
2022-09-07T04:56:29.292Z,2.30
2022-09-07T04:58:56.805Z,2.75
2022-09-07T05:01:25.952Z,2.78
2022-09-07T05:03:53.518Z,2.40
2022-09-07T05:06:21.778Z,2.10
2022-09-07T05:08:51.471Z,2.50
2022-09-07T05:11:19.531Z,2.00
2022-09-07T05:13:46.466Z,2.50
2022-09-07T05:16:14.933Z,1.77
2022-09-07T05:18:42.844Z,2.50
2022-09-07T05:21:12.151Z,2.30
2022-09-07T05:23:39.128Z,2.40
2022-09-07T05:26:06.495Z,2.10
2022-09-07T05:28:34.549Z,2.60
2022-09-07T05:31:19.454Z,2.10
2022-09-07T05:36:35.567Z,2.42
2022-09-07T05:39:03.463Z,2.00
2022-09-07T05:41:30.473Z,2.00
2022-09-07T05:46:44.514Z,2.20
2022-09-07T05:49:11.728Z,2.20
2022-09-07T05:51:38.875Z,2.53
2022-09-07T05:54:06.107Z,2.22
2022-09-07T05:56:36.352Z,2.25
2022-09-07T05:59:03.903Z,2.15
2022-09-07T06:01:30.964Z,1.90
2022-09-07T06:03:57.965Z,1.92
2022-09-07T06:06:24.833Z,2.38
2022-09-07T06:08:53.727Z,2.13
2022-09-07T06:11:25.247Z,2.10
2022-09-07T06:13:52.236Z,2.00
2022-09-07T06:16:20.215Z,1.95
2022-09-07T06:18:49.811Z,1.88
2022-09-07T06:21:22.308Z,2.35
2022-09-07T06:23:50.021Z,1.90
2022-09-07T06:26:19.008Z,2.10
2022-09-07T06:28:51.372Z,2.28
2022-09-07T06:31:21.778Z,2.20
2022-09-07T06:33:49.579Z,2.03
2022-09-07T06:36:22.785Z,1.98
2022-09-07T06:38:50.674Z,2.00
2022-09-07T06:44:09.875Z,2.13
2022-09-07T06:49:24.867Z,2.05
2022-09-07T06:51:51.821Z,1.80
2022-09-07T06:57:09.026Z,1.90
2022-09-07T06:59:37.234Z,2.10
2022-09-07T07:02:05.514Z,1.90
2022-09-07T07:04:37.708Z,2.10
2022-09-07T07:07:11.796Z,1.85
2022-09-07T07:09:39.005Z,1.60
2022-09-07T07:12:06.273Z,1.90
2022-09-07T07:14:34.603Z,1.90
2022-09-07T07:17:02.523Z,2.10
2022-09-07T07:19:29.616Z,1.70
2022-09-07T07:24:43.400Z,1.80
2022-09-07T07:27:10.262Z,1.80
2022-09-07T07:29:37.285Z,1.98
2022-09-07T07:32:04.318Z,1.60
2022-09-07T07:34:31.328Z,1.83
2022-09-07T07:36:58.221Z,1.70
2022-09-07T07:42:12.424Z,1.65
2022-09-07T07:44:39.406Z,1.70
2022-09-07T07:47:06.756Z,1.92
2022-09-07T07:49:33.723Z,2.10
2022-09-07T07:54:48.435Z,1.90
2022-09-07T07:57:16.891Z,1.63
2022-09-07T07:59:43.913Z,1.40
2022-09-07T08:02:16.054Z,1.70
2022-09-07T08:04:43.268Z,2.17
2022-09-07T08:07:12.057Z,1.52
2022-09-07T08:09:43.588Z,1.70
2022-09-07T08:12:13.876Z,1.88
2022-09-07T08:14:41.712Z,1.67
2022-09-07T08:17:14.213Z,2.00
2022-09-07T08:19:41.093Z,1.50
2022-09-07T08:22:09.701Z,1.70
2022-09-07T08:24:36.564Z,1.70
2022-09-07T08:27:04.457Z,1.70
2022-09-07T08:29:34.463Z,1.60
2022-09-07T08:32:03.894Z,1.80
2022-09-07T08:34:30.758Z,1.70
2022-09-07T08:36:57.605Z,1.60
2022-09-07T08:39:24.381Z,1.80
2022-09-07T08:42:09.038Z,1.90
2022-09-07T08:44:46.458Z,1.80
2022-09-07T08:47:58.103Z,1.60
2022-09-07T08:50:46.262Z,1.53
2022-09-07T08:53:18.276Z,1.50
2022-09-07T08:56:23.360Z,1.40
2022-09-07T08:58:54.244Z,1.80
2022-09-07T09:01:30.908Z,2.10
2022-09-07T09:07:23.912Z,1.70
2022-09-07T09:10:27.881Z,1.77
2022-09-07T09:12:57.383Z,1.80
2022-09-07T09:15:30.885Z,1.75
2022-09-07T09:18:14.845Z,1.90
2022-09-07T09:20:50.008Z,2.10
2022-09-07T09:23:19.503Z,1.40
2022-09-07T09:25:54.013Z,1.70
2022-09-07T09:28:21.173Z,1.45
2022-09-07T09:30:48.275Z,1.30
2022-09-07T09:33:24.008Z,1.60
2022-09-07T09:35:52.857Z,1.60
2022-09-07T09:38:40.455Z,1.70
2022-09-07T09:41:13.495Z,1.60
2022-09-07T09:43:55.022Z,1.60
2022-09-07T09:46:31.669Z,1.60
2022-09-07T09:49:03.292Z,1.42
2022-09-07T09:54:37.127Z,1.30
2022-09-07T09:57:04.092Z,1.40
2022-09-07T10:05:30.357Z,1.60
2022-09-07T10:07:57.836Z,1.27
2022-09-07T10:10:27.501Z,1.20
2022-09-07T10:12:55.892Z,1.60
2022-09-07T10:15:40.541Z,1.50
2022-09-07T10:18:18.559Z,1.60
2022-09-07T10:20:45.708Z,1.60
2022-09-07T10:23:27.326Z,1.42
2022-09-07T10:25:54.182Z,1.50
2022-09-07T10:28:23.888Z,1.50
2022-09-07T10:30:51.038Z,1.60
2022-09-07T10:33:24.051Z,1.60
2022-09-07T10:36:04.879Z,1.60
2022-09-07T10:38:39.459Z,1.75
2022-09-07T10:41:09.667Z,1.73
2022-09-07T10:43:50.078Z,1.50
2022-09-07T10:46:57.920Z,1.60
2022-09-07T10:49:28.293Z,1.20
2022-09-07T10:52:37.467Z,1.60
2022-09-07T10:55:13.332Z,1.70
2022-09-07T10:57:40.164Z,1.50
2022-09-07T11:00:16.589Z,1.77
2022-09-07T11:03:26.697Z,1.70
2022-09-07T11:06:37.789Z,1.60
2022-09-07T11:09:48.145Z,1.90
2022-09-07T11:12:29.049Z,1.70
2022-09-07T11:15:14.065Z,1.60
2022-09-07T11:17:47.381Z,1.42
2022-09-07T11:20:35.475Z,1.43
2022-09-07T11:23:36.791Z,1.50
2022-09-07T11:26:14.795Z,1.50
2022-09-07T11:28:47.176Z,1.50
2022-09-07T11:31:48.896Z,1.50
2022-09-07T11:34:29.487Z,1.45
2022-09-07T11:37:06.412Z,1.38
2022-09-07T11:39:41.376Z,1.70
2022-09-07T11:45:16.012Z,1.40
2022-09-07T11:48:03.592Z,1.50
2022-09-07T11:50:34.431Z,1.50
2022-09-07T11:53:07.311Z,1.23
2022-09-07T11:55:39.587Z,1.60
2022-09-07T11:58:35.983Z,1.20
2022-09-07T12:01:29.741Z,1.50
2022-09-07T12:04:33.279Z,1.40
2022-09-07T12:07:34.726Z,1.40
2022-09-07T12:10:22.192Z,1.30
2022-09-07T12:13:06.967Z,1.30
2022-09-07T12:16:01.970Z,1.20
2022-09-07T12:18:56.825Z,1.50
2022-09-07T12:21:43.015Z,1.20
2022-09-07T12:24:32.317Z,1.40
2022-09-07T12:27:03.585Z,1.40
2022-09-07T12:29:31.279Z,1.38
2022-09-07T12:32:52.600Z,1.10
2022-09-07T12:34:54.243Z,1.27
2022-09-07T12:37:27.060Z,1.20
2022-09-07T12:40:27.909Z,1.00
2022-09-07T12:43:15.027Z,1.00
2022-09-07T12:45:44.868Z,1.17
2022-09-07T12:48:17.754Z,1.10
2022-09-07T12:50:51.062Z,1.20
2022-09-07T12:53:57.696Z,1.40
2022-09-07T13:00:03.328Z,1.20
2022-09-07T13:03:04.350Z,1.20
2022-09-07T13:05:46.439Z,1.10
2022-09-07T13:08:21.937Z,1.20
2022-09-07T13:10:49.252Z,1.17
2022-09-07T13:13:16.143Z,1.20
2022-09-07T13:15:45.292Z,1.52
2022-09-07T13:18:30.036Z,1.48
2022-09-07T13:21:09.327Z,1.50
2022-09-07T13:23:45.708Z,1.23
2022-09-07T13:26:53.282Z,1.20
2022-09-07T13:29:50.421Z,1.10
2022-09-07T13:35:25.009Z,1.20
2022-09-07T13:38:01.003Z,1.30
2022-09-07T13:40:34.445Z,1.30
2022-09-07T13:43:03.950Z,1.30
2022-09-07T13:45:59.125Z,1.23
2022-09-07T13:48:50.299Z,1.40
2022-09-07T13:51:24.943Z,1.20
2022-09-07T13:54:01.516Z,1.10
2022-09-07T13:56:45.583Z,1.20
2022-09-07T13:59:27.369Z,1.20
2022-09-07T14:01:56.011Z,1.30
2022-09-07T14:04:39.247Z,1.27
2022-09-07T14:07:14.637Z,1.00
2022-09-07T14:09:42.347Z,1.00
2022-09-07T14:12:21.149Z,1.20
2022-09-07T14:15:17.280Z,1.50
2022-09-07T14:17:45.213Z,1.10
2022-09-07T14:20:17.362Z,1.17
2022-09-07T14:22:45.457Z,1.30
2022-09-07T14:25:19.574Z,1.20
2022-09-07T14:27:48.368Z,1.70
2022-09-07T14:30:31.921Z,1.30
2022-09-07T14:33:24.753Z,1.20
2022-09-07T14:35:51.769Z,1.40
2022-09-07T14:41:18.969Z,1.40
2022-09-07T14:43:54.360Z,1.40
2022-09-07T14:46:34.101Z,1.30
2022-09-07T14:49:04.935Z,1.20
2022-09-07T14:51:36.620Z,1.50
2022-09-07T14:54:08.153Z,1.50
2022-09-07T14:56:40.233Z,1.40
2022-09-07T14:59:37.014Z,1.60
2022-09-07T15:02:35.241Z,1.20
2022-09-07T15:05:26.077Z,1.40
2022-09-07T15:08:01.764Z,1.20
2022-09-07T15:10:36.859Z,1.40
2022-09-07T15:13:06.252Z,1.40
2022-09-07T15:15:40.221Z,2.00
2022-09-07T15:18:45.400Z,1.40
2022-09-07T15:21:12.146Z,1.35
2022-09-07T15:23:39.065Z,1.42
2022-09-07T15:26:06.912Z,1.40
2022-09-07T15:34:19.655Z,1.20
2022-09-07T15:36:52.207Z,1.17
2022-09-07T15:39:23.429Z,1.40
2022-09-07T15:41:51.654Z,1.20
2022-09-07T15:44:22.874Z,1.33
2022-09-07T15:49:40.094Z,1.30
2022-09-07T15:52:09.125Z,1.30
2022-09-07T15:54:39.619Z,1.30
2022-09-07T15:59:53.752Z,1.50
2022-09-07T16:05:08.261Z,1.70
2022-09-07T16:10:22.111Z,1.30
2022-09-07T16:13:11.164Z,1.40
2022-09-07T16:15:45.135Z,1.40
2022-09-07T16:18:16.507Z,1.40
2022-09-07T16:20:44.730Z,1.50
2022-09-07T16:23:14.716Z,1.40
2022-09-07T16:25:54.012Z,1.50
2022-09-07T16:28:20.786Z,1.58
2022-09-07T16:30:48.171Z,1.50
2022-09-07T16:33:15.223Z,1.60
2022-09-07T16:35:42.109Z,1.45
2022-09-07T16:40:55.728Z,1.70
2022-09-07T16:43:22.475Z,1.50
2022-09-07T16:46:04.965Z,1.80
2022-09-07T16:48:33.707Z,1.42
2022-09-07T16:51:02.799Z,1.85
2022-09-07T16:53:31.549Z,1.60
2022-09-07T16:56:02.604Z,1.42
2022-09-07T16:58:37.627Z,1.60
2022-09-07T17:01:12.943Z,1.52
2022-09-07T17:03:40.694Z,1.50
2022-09-07T17:06:09.681Z,1.40
2022-09-07T17:08:37.314Z,1.80
2022-09-07T17:11:15.952Z,1.50
2022-09-07T17:13:43.463Z,1.70
2022-09-07T17:16:16.045Z,1.63
2022-09-07T17:21:33.262Z,2.00
2022-09-07T17:24:01.675Z,1.70
2022-09-07T17:26:30.639Z,1.77
2022-09-07T17:29:01.140Z,1.80
2022-09-07T17:34:17.838Z,1.65
2022-09-07T17:36:44.902Z,2.00
2022-09-07T17:39:16.792Z,1.83
2022-09-07T17:41:45.312Z,1.90
2022-09-07T17:44:12.504Z,1.80
2022-09-07T17:46:39.395Z,1.92
2022-09-07T17:49:12.084Z,1.50
2022-09-07T17:51:39.370Z,2.00
2022-09-07T17:54:11.399Z,1.80
2022-09-07T17:56:40.196Z,1.80
2022-09-07T18:01:54.656Z,2.00
2022-09-07T18:04:22.133Z,1.60
2022-09-07T18:06:49.037Z,1.90
2022-09-07T18:09:16.323Z,1.67
2022-09-07T18:11:48.091Z,1.70
2022-09-07T18:14:15.403Z,2.13
2022-09-07T18:16:44.885Z,2.20
2022-09-07T18:19:12.503Z,1.80
2022-09-07T18:21:42.101Z,2.00
2022-09-07T18:24:18.140Z,2.20
2022-09-07T18:26:49.971Z,2.08
2022-09-07T18:29:28.815Z,1.90
2022-09-07T18:31:58.497Z,1.80
2022-09-07T18:34:25.525Z,1.70
2022-09-07T18:36:52.304Z,1.90
2022-09-07T18:39:19.223Z,2.00
2022-09-07T18:41:46.115Z,1.90
2022-09-07T18:47:00.444Z,2.00
2022-09-07T18:49:27.232Z,1.90
2022-09-07T18:54:41.400Z,2.22
2022-09-07T18:57:08.707Z,2.20
2022-09-07T18:59:35.968Z,2.40
2022-09-07T19:02:04.964Z,2.20
2022-09-07T19:07:28.827Z,2.10
2022-09-07T19:09:56.819Z,2.50
2022-09-07T19:12:24.295Z,2.15
2022-09-07T19:14:51.569Z,2.10
2022-09-07T19:17:18.969Z,2.30
2022-09-07T19:19:45.778Z,2.33
2022-09-07T19:22:12.539Z,2.30
2022-09-07T19:24:39.268Z,2.30
2022-09-07T19:27:07.197Z,2.40
2022-09-07T19:29:33.998Z,2.47
2022-09-07T19:32:12.898Z,2.20
2022-09-07T19:34:42.422Z,2.15
2022-09-07T19:37:11.667Z,2.10
2022-09-07T19:39:38.548Z,2.30
2022-09-07T19:42:09.253Z,2.50
2022-09-07T19:44:36.079Z,2.00
2022-09-07T19:47:03.067Z,2.50
2022-09-07T19:49:30.561Z,2.10
2022-09-07T19:51:57.404Z,2.80
2022-09-07T19:54:24.351Z,2.30
2022-09-07T19:56:51.139Z,2.60
2022-09-07T19:59:19.683Z,2.20
2022-09-07T20:01:48.259Z,2.33
2022-09-07T20:04:20.278Z,2.00
2022-09-07T20:06:50.149Z,2.25
2022-09-07T20:09:18.431Z,2.28
2022-09-07T20:11:47.425Z,2.25
2022-09-07T20:14:15.879Z,2.10
2022-09-07T20:16:42.959Z,2.30
2022-09-07T20:19:14.171Z,2.47
2022-09-07T20:21:41.211Z,2.22
2022-09-07T20:24:08.080Z,2.38
2022-09-07T20:26:34.868Z,2.50
2022-09-07T20:29:25.709Z,2.17
2022-09-07T20:31:48.571Z,2.45
2022-09-07T20:34:15.428Z,2.30
2022-09-07T20:36:42.231Z,2.10
2022-09-07T20:39:15.605Z,2.40
2022-09-07T20:41:42.793Z,2.30
2022-09-07T20:44:09.958Z,2.60
2022-09-07T20:46:37.019Z,2.83
2022-09-07T20:49:05.205Z,3.00
2022-09-07T20:51:32.484Z,2.40
2022-09-07T20:53:59.463Z,2.40
2022-09-07T20:56:28.040Z,2.17
2022-09-07T20:59:02.472Z,2.30
2022-09-07T21:01:31.536Z,2.28
2022-09-07T21:04:00.385Z,2.50
2022-09-07T21:06:28.961Z,2.28
2022-09-07T21:08:57.259Z,2.40
2022-09-07T21:11:29.555Z,2.58
2022-09-07T21:13:58.467Z,2.33
2022-09-07T21:16:26.078Z,2.63
2022-09-07T21:18:58.967Z,2.80
2022-09-07T21:21:27.251Z,3.00
2022-09-07T21:23:59.507Z,3.30
2022-09-07T21:26:28.139Z,2.65
2022-09-07T21:28:59.911Z,2.60
2022-09-07T21:31:27.589Z,2.80
2022-09-07T21:33:56.240Z,2.78
2022-09-07T21:36:23.839Z,2.83
2022-09-07T21:38:50.870Z,2.53
2022-09-07T21:41:20.294Z,2.70
2022-09-07T21:43:47.597Z,2.50
2022-09-07T21:46:17.411Z,3.10
2022-09-07T21:48:45.719Z,2.30
2022-09-07T21:51:13.565Z,2.22
2022-09-07T21:53:40.887Z,2.10
2022-09-07T21:56:11.128Z,1.50
2022-09-07T21:58:39.780Z,1.30
2022-09-07T22:01:11.709Z,1.25
2022-09-07T22:03:40.325Z,1.30
2022-09-07T22:06:08.332Z,1.30
2022-09-07T22:08:36.408Z,1.20
2022-09-07T22:11:06.044Z,1.20
2022-09-07T22:13:33.959Z,1.35
2022-09-07T22:16:01.369Z,1.50
2022-09-07T22:18:30.277Z,1.45
2022-09-07T22:21:08.703Z,1.67
2022-09-07T22:23:37.966Z,1.70
2022-09-07T22:26:05.363Z,1.52
2022-09-07T22:28:32.301Z,1.70
2022-09-07T22:31:10.473Z,1.70
2022-09-07T22:33:37.612Z,1.60
2022-09-07T22:36:15.408Z,1.83
2022-09-07T22:38:44.131Z,1.80
2022-09-07T22:41:16.892Z,2.00
2022-09-07T22:43:44.596Z,2.00
2022-09-07T22:46:12.143Z,2.35
2022-09-07T22:48:40.407Z,1.65
2022-09-07T22:51:08.783Z,1.80
2022-09-07T22:53:38.320Z,2.30
2022-09-07T22:56:14.136Z,2.00
2022-09-07T22:58:45.648Z,2.00
2022-09-07T23:01:12.612Z,1.90
2022-09-07T23:03:39.770Z,2.00
2022-09-07T23:06:06.727Z,2.00
2022-09-07T23:08:33.698Z,1.70
2022-09-07T23:11:05.171Z,1.90
2022-09-07T23:13:35.084Z,1.75
2022-09-07T23:16:06.376Z,1.60
2022-09-07T23:18:34.077Z,1.65
2022-09-07T23:21:02.109Z,1.90
2022-09-07T23:23:29.729Z,1.90
2022-09-07T23:25:56.673Z,1.80
2022-09-07T23:28:23.442Z,1.90
2022-09-07T23:30:51.245Z,1.58
2022-09-07T23:33:18.509Z,1.87
2022-09-07T23:36:05.992Z,1.90
2022-09-07T23:38:33.009Z,3.40
2022-09-07T23:41:00.624Z,2.70
2022-09-07T23:43:28.721Z,3.80
2022-09-07T23:45:56.513Z,2.92
2022-09-07T23:48:23.879Z,2.00
2022-09-07T23:50:50.946Z,1.90
2022-09-07T23:53:18.840Z,2.15
2022-09-07T23:55:48.216Z,2.10
2022-09-07T23:58:15.016Z,2.30
